createdAt,value
2022-11-17T00:00:24.395Z,8.92
2022-11-17T00:00:55.945Z,8.87
2022-11-17T00:01:27.482Z,8.89
2022-11-17T00:01:59.062Z,8.89
2022-11-17T00:02:30.633Z,8.86
2022-11-17T00:03:02.296Z,8.87
2022-11-17T00:03:34.357Z,8.86
2022-11-17T00:04:06.167Z,8.87
2022-11-17T00:04:37.684Z,8.85
2022-11-17T00:05:09.354Z,8.85
2022-11-17T00:05:40.877Z,8.80
2022-11-17T00:06:12.615Z,8.82
2022-11-17T00:06:44.742Z,8.86
2022-11-17T00:07:16.332Z,8.87
2022-11-17T00:07:49.093Z,8.87
2022-11-17T00:08:20.642Z,8.90
2022-11-17T00:08:53.040Z,8.89
2022-11-17T00:09:25.257Z,8.86
2022-11-17T00:09:56.785Z,8.83
2022-11-17T00:10:28.339Z,8.89
2022-11-17T00:11:03.767Z,8.86
2022-11-17T00:11:55.243Z,8.86
2022-11-17T00:12:45.328Z,8.87
2022-11-17T00:13:35.341Z,8.87
2022-11-17T00:14:30.418Z,8.86
2022-11-17T00:15:02.030Z,8.92
2022-11-17T00:15:33.665Z,8.90
2022-11-17T00:16:05.473Z,8.93
2022-11-17T00:16:37.018Z,8.92
2022-11-17T00:17:11.294Z,8.90
2022-11-17T00:17:42.838Z,8.90
2022-11-17T00:18:32.861Z,8.87
2022-11-17T00:19:23.346Z,8.90
2022-11-17T00:20:13.601Z,8.86
2022-11-17T00:21:03.318Z,8.83
2022-11-17T00:21:35.011Z,8.85
2022-11-17T00:22:06.562Z,8.86
2022-11-17T00:22:38.093Z,8.87
2022-11-17T00:23:09.615Z,8.86
2022-11-17T00:23:47.348Z,8.89
2022-11-17T00:24:19.192Z,8.80
2022-11-17T00:24:51.261Z,8.89
2022-11-17T00:25:22.884Z,8.90
2022-11-17T00:25:54.399Z,8.87
2022-11-17T00:26:28.676Z,8.90
2022-11-17T00:27:03.253Z,8.87
2022-11-17T00:27:34.788Z,8.85
2022-11-17T00:28:06.305Z,8.80
2022-11-17T00:28:37.926Z,8.79
2022-11-17T00:29:09.477Z,8.79
2022-11-17T00:29:41.033Z,8.80
2022-11-17T00:30:33.053Z,8.79
2022-11-17T00:31:23.322Z,8.82
2022-11-17T00:32:13.490Z,8.87
2022-11-17T00:33:03.274Z,8.83
2022-11-17T00:33:53.267Z,8.82
2022-11-17T00:34:24.796Z,8.80
2022-11-17T00:34:56.401Z,8.85
2022-11-17T00:35:27.930Z,8.87
2022-11-17T00:35:59.557Z,8.89
2022-11-17T00:36:35.740Z,8.87
2022-11-17T00:37:08.601Z,8.83
2022-11-17T00:37:59.658Z,8.85
2022-11-17T00:38:31.176Z,8.83
2022-11-17T00:39:03.869Z,8.83
2022-11-17T00:39:35.823Z,8.77
2022-11-17T00:40:07.700Z,8.80
2022-11-17T00:40:39.329Z,8.76
2022-11-17T00:41:10.855Z,8.76
2022-11-17T00:41:42.795Z,8.82
2022-11-17T00:42:14.297Z,8.85
2022-11-17T00:42:45.837Z,8.87
2022-11-17T00:43:17.398Z,8.87
2022-11-17T00:43:48.942Z,8.89
2022-11-17T00:44:20.512Z,8.86
2022-11-17T00:44:52.042Z,8.85
2022-11-17T00:45:23.578Z,8.85
2022-11-17T00:45:55.093Z,8.85
2022-11-17T00:46:26.962Z,8.83
2022-11-17T00:46:58.528Z,8.89
2022-11-17T00:47:30.056Z,8.83
2022-11-17T00:48:01.585Z,8.87
2022-11-17T00:48:33.113Z,8.82
2022-11-17T00:49:05.930Z,8.82
2022-11-17T00:49:37.485Z,8.76
2022-11-17T00:50:09.766Z,8.77
2022-11-17T00:50:41.284Z,8.80
2022-11-17T00:51:12.810Z,8.79
2022-11-17T00:51:44.341Z,8.83
2022-11-17T00:52:15.885Z,8.73
2022-11-17T00:52:47.438Z,8.79
2022-11-17T00:53:18.966Z,8.80
2022-11-17T00:53:50.566Z,8.85
2022-11-17T00:54:22.875Z,8.82
2022-11-17T00:54:54.417Z,8.85
2022-11-17T00:55:26.073Z,8.82
2022-11-17T00:55:57.644Z,8.83
2022-11-17T00:56:29.450Z,8.82
2022-11-17T00:57:01.024Z,8.86
2022-11-17T00:57:32.578Z,8.82
2022-11-17T00:58:04.133Z,8.80
2022-11-17T00:58:36.476Z,8.69
2022-11-17T00:59:08.088Z,8.77
2022-11-17T00:59:39.593Z,8.77
2022-11-17T01:00:11.559Z,8.80
2022-11-17T01:00:43.071Z,8.83
2022-11-17T01:01:14.839Z,8.83
2022-11-17T01:01:46.636Z,8.85
2022-11-17T01:02:18.309Z,8.90
2022-11-17T01:02:49.902Z,8.87
2022-11-17T01:03:21.468Z,8.83
2022-11-17T01:04:03.117Z,8.87
2022-11-17T01:04:34.806Z,8.89
2022-11-17T01:05:06.547Z,8.83
2022-11-17T01:05:38.163Z,8.82
2022-11-17T01:06:15.318Z,8.86
2022-11-17T01:06:49.065Z,8.79
2022-11-17T01:07:22.819Z,8.83
2022-11-17T01:07:54.426Z,8.87
2022-11-17T01:08:26.008Z,8.80
2022-11-17T01:09:05.866Z,8.80
2022-11-17T01:09:37.390Z,8.80
2022-11-17T01:10:09.400Z,8.82
2022-11-17T01:10:40.947Z,8.82
2022-11-17T01:11:15.474Z,8.86
2022-11-17T01:11:48.600Z,8.87
2022-11-17T01:12:20.134Z,8.85
2022-11-17T01:12:51.670Z,8.85
2022-11-17T01:13:23.209Z,8.82
2022-11-17T01:13:57.875Z,8.83
2022-11-17T01:14:30.957Z,8.86
2022-11-17T01:15:02.531Z,8.83
2022-11-17T01:15:34.694Z,8.89
2022-11-17T01:16:12.615Z,8.93
2022-11-17T01:16:44.636Z,8.93
2022-11-17T01:17:16.173Z,8.89
2022-11-17T01:17:47.859Z,8.90
2022-11-17T01:18:19.381Z,8.87
2022-11-17T01:18:51.951Z,8.83
2022-11-17T01:19:24.321Z,8.89
2022-11-17T01:19:55.866Z,8.89
2022-11-17T01:20:27.415Z,8.86
2022-11-17T01:21:09.151Z,8.85
2022-11-17T01:21:40.812Z,8.80
2022-11-17T01:22:13.071Z,8.76
2022-11-17T01:22:44.589Z,8.79
2022-11-17T01:23:16.272Z,8.83
2022-11-17T01:23:49.442Z,8.73
2022-11-17T01:24:21.061Z,8.76
2022-11-17T01:24:52.597Z,8.72
2022-11-17T01:25:24.126Z,8.75
2022-11-17T01:26:01.634Z,8.76
2022-11-17T01:26:35.295Z,8.77
2022-11-17T01:27:06.845Z,8.82
2022-11-17T01:27:38.371Z,8.83
2022-11-17T01:28:09.905Z,8.85
2022-11-17T01:28:42.257Z,8.83
2022-11-17T01:29:17.105Z,8.86
2022-11-17T01:29:48.729Z,8.86
2022-11-17T01:30:20.341Z,8.90
2022-11-17T01:30:59.530Z,8.80
2022-11-17T01:31:34.046Z,8.85
2022-11-17T01:32:05.585Z,8.87
2022-11-17T01:32:37.155Z,8.87
2022-11-17T01:33:08.685Z,8.89
2022-11-17T01:33:40.583Z,8.89
2022-11-17T01:34:12.584Z,8.85
2022-11-17T01:34:44.212Z,8.82
2022-11-17T01:35:15.827Z,8.85
2022-11-17T01:35:47.344Z,8.90
2022-11-17T01:36:24.760Z,8.82
2022-11-17T01:37:14.537Z,8.79
2022-11-17T01:37:46.098Z,8.87
2022-11-17T01:38:17.609Z,8.87
2022-11-17T01:38:49.533Z,8.79
2022-11-17T01:39:21.340Z,8.79
2022-11-17T01:39:52.881Z,8.69
2022-11-17T01:40:24.435Z,8.73
2022-11-17T01:40:58.490Z,8.79
2022-11-17T01:41:30.049Z,8.82
2022-11-17T01:42:13.109Z,8.83
2022-11-17T01:42:44.628Z,8.87
2022-11-17T01:43:16.193Z,8.77
2022-11-17T01:43:48.901Z,8.80
2022-11-17T01:44:44.442Z,8.76
2022-11-17T01:45:20.383Z,8.66
2022-11-17T01:45:51.933Z,8.62
2022-11-17T01:46:26.161Z,8.58
2022-11-17T01:47:00.879Z,8.59
2022-11-17T01:47:38.770Z,8.56
2022-11-17T01:48:13.552Z,8.49
2022-11-17T01:48:46.131Z,8.56
2022-11-17T01:49:28.635Z,8.61
2022-11-17T01:50:26.204Z,8.58
2022-11-17T01:50:58.446Z,8.58
2022-11-17T01:51:32.921Z,8.56
2022-11-17T01:52:07.825Z,8.56
2022-11-17T01:52:41.032Z,8.54
2022-11-17T01:53:17.411Z,8.62
2022-11-17T01:53:51.340Z,8.65
2022-11-17T01:54:28.894Z,8.66
2022-11-17T01:55:01.800Z,8.62
2022-11-17T01:55:38.449Z,8.62
2022-11-17T01:56:14.781Z,8.59
2022-11-17T01:56:49.589Z,8.56
2022-11-17T01:57:26.695Z,8.56
2022-11-17T01:58:07.589Z,8.48
2022-11-17T01:58:43.101Z,8.52
2022-11-17T01:59:31.079Z,8.54
2022-11-17T02:00:07.182Z,8.55
2022-11-17T02:01:56.688Z,8.48
2022-11-17T02:02:28.777Z,8.49
2022-11-17T02:03:00.849Z,8.55
2022-11-17T02:03:35.535Z,8.58
2022-11-17T02:04:07.333Z,8.59
2022-11-17T02:04:49.689Z,8.52
2022-11-17T02:05:39.584Z,8.52
2022-11-17T02:06:20.832Z,8.52
2022-11-17T02:06:59.672Z,8.52
2022-11-17T02:07:37.762Z,8.61
2022-11-17T02:08:11.101Z,8.59
2022-11-17T02:08:45.835Z,8.59
2022-11-17T02:09:17.598Z,8.65
2022-11-17T02:09:49.677Z,8.61
2022-11-17T02:10:21.201Z,8.58
2022-11-17T02:10:53.816Z,8.65
2022-11-17T02:11:26.008Z,8.59
2022-11-17T02:11:59.093Z,8.62
2022-11-17T02:12:32.695Z,8.64
2022-11-17T02:13:05.466Z,8.52
2022-11-17T02:13:38.949Z,8.62
2022-11-17T02:14:11.105Z,8.62
2022-11-17T02:14:42.787Z,8.62
2022-11-17T02:15:14.462Z,8.65
2022-11-17T02:15:45.992Z,8.61
2022-11-17T02:16:18.003Z,8.58
2022-11-17T02:16:49.579Z,8.52
2022-11-17T02:17:23.464Z,8.45
2022-11-17T02:17:56.216Z,8.41
2022-11-17T02:18:27.781Z,8.45
2022-11-17T02:18:59.432Z,8.38
2022-11-17T02:19:38.836Z,8.44
2022-11-17T02:20:10.649Z,8.40
2022-11-17T02:20:53.540Z,8.35
2022-11-17T02:21:46.748Z,8.42
2022-11-17T02:23:04.918Z,8.46
2022-11-17T02:23:51.427Z,8.30
2022-11-17T02:24:31.296Z,8.31
2022-11-17T02:25:27.108Z,8.33
2022-11-17T02:26:15.134Z,8.30
2022-11-17T02:26:49.248Z,8.35
2022-11-17T02:27:48.869Z,8.35
2022-11-17T02:28:23.794Z,8.33
2022-11-17T02:29:09.410Z,8.31
2022-11-17T02:30:10.317Z,8.27
2022-11-17T02:30:58.063Z,8.20
2022-11-17T02:31:42.618Z,8.13
2022-11-17T02:32:24.657Z,8.11
2022-11-17T02:33:15.661Z,8.10
2022-11-17T02:33:59.347Z,8.08
2022-11-17T02:34:51.973Z,8.07
2022-11-17T02:35:26.887Z,8.08
2022-11-17T02:36:04.296Z,8.07
2022-11-17T02:36:46.470Z,8.06
2022-11-17T02:37:39.523Z,8.08
2022-11-17T02:38:23.605Z,8.08
2022-11-17T02:39:14.397Z,8.07
2022-11-17T02:40:10.548Z,8.11
2022-11-17T02:40:48.444Z,8.08
2022-11-17T02:41:24.001Z,8.11
2022-11-17T02:42:04.317Z,8.17
2022-11-17T02:43:03.966Z,8.13
2022-11-17T02:44:03.261Z,8.17
2022-11-17T02:44:42.305Z,8.20
2022-11-17T02:45:22.473Z,8.24
2022-11-17T02:46:14.605Z,8.23
2022-11-17T02:47:10.873Z,8.23
2022-11-17T02:47:44.713Z,8.24
2022-11-17T02:48:28.405Z,8.23
2022-11-17T02:49:06.085Z,8.21
2022-11-17T02:49:41.209Z,8.18
2022-11-17T02:50:14.021Z,8.17
2022-11-17T02:50:47.782Z,8.10
2022-11-17T02:51:21.688Z,8.08
2022-11-17T02:51:56.315Z,8.13
2022-11-17T02:52:30.586Z,8.18
2022-11-17T02:53:03.390Z,8.13
2022-11-17T02:53:36.175Z,8.20
2022-11-17T02:54:09.054Z,8.24
2022-11-17T02:54:40.581Z,8.23
2022-11-17T02:55:12.346Z,8.24
2022-11-17T02:55:50.446Z,8.28
2022-11-17T02:56:22.501Z,8.28
2022-11-17T02:56:54.036Z,8.30
2022-11-17T02:57:33.534Z,8.31
2022-11-17T02:58:11.930Z,8.30
2022-11-17T02:58:43.451Z,8.31
2022-11-17T02:59:18.148Z,8.31
2022-11-17T02:59:50.017Z,8.35
2022-11-17T03:00:21.613Z,8.31
2022-11-17T03:01:22.378Z,8.24
2022-11-17T03:02:14.063Z,8.21
2022-11-17T03:03:13.605Z,8.24
2022-11-17T03:04:11.028Z,8.21
2022-11-17T03:05:19.170Z,8.30
2022-11-17T03:05:50.645Z,8.31
2022-11-17T03:06:45.793Z,8.38
2022-11-17T03:07:33.009Z,8.41
2022-11-17T03:08:33.294Z,8.48
2022-11-17T03:09:32.505Z,8.38
2022-11-17T03:10:12.018Z,8.38
2022-11-17T03:11:00.144Z,8.31
2022-11-17T03:12:13.565Z,8.34
2022-11-17T03:12:59.441Z,8.33
2022-11-17T03:13:45.858Z,8.34
2022-11-17T03:14:40.394Z,8.42
2022-11-17T03:15:36.632Z,8.38
2022-11-17T03:16:29.685Z,8.44
2022-11-17T03:17:13.371Z,8.45
2022-11-17T03:17:51.086Z,8.33
2022-11-17T03:18:50.777Z,8.31
2022-11-17T03:19:57.846Z,8.38
2022-11-17T03:20:46.242Z,8.34
2022-11-17T03:21:28.846Z,8.34
2022-11-17T03:22:12.908Z,8.28
2022-11-17T03:23:13.806Z,8.28
2022-11-17T03:24:09.394Z,8.24
2022-11-17T03:24:52.361Z,8.25
2022-11-17T03:25:27.157Z,8.25
2022-11-17T03:25:59.814Z,8.25
2022-11-17T03:26:35.850Z,8.24
2022-11-17T03:27:16.879Z,8.23
2022-11-17T03:27:53.563Z,8.28
2022-11-17T03:28:29.283Z,8.27
2022-11-17T03:29:02.636Z,8.30
2022-11-17T03:29:36.780Z,8.35
2022-11-17T03:30:10.297Z,8.33
2022-11-17T03:30:44.025Z,8.37
2022-11-17T03:31:17.728Z,8.35
2022-11-17T03:31:53.465Z,8.34
2022-11-17T03:32:27.892Z,8.40
2022-11-17T03:33:05.238Z,8.42
2022-11-17T03:33:39.207Z,8.44
2022-11-17T03:34:15.625Z,8.38
2022-11-17T03:34:55.658Z,8.40
2022-11-17T03:35:31.963Z,8.34
2022-11-17T03:36:35.634Z,8.40
2022-11-17T03:37:09.370Z,8.41
2022-11-17T03:37:45.794Z,8.35
2022-11-17T03:38:20.693Z,8.33
2022-11-17T03:39:02.555Z,8.35
2022-11-17T03:39:37.654Z,8.34
2022-11-17T03:40:12.687Z,8.37
2022-11-17T03:40:47.503Z,8.34
2022-11-17T03:41:20.939Z,8.41
2022-11-17T03:41:59.801Z,8.42
2022-11-17T03:42:34.594Z,8.34
2022-11-17T03:43:09.491Z,8.35
2022-11-17T03:43:43.198Z,8.41
2022-11-17T03:44:16.302Z,8.38
2022-11-17T03:44:52.881Z,8.34
2022-11-17T03:45:30.375Z,8.30
2022-11-17T03:46:10.053Z,8.33
2022-11-17T03:46:44.459Z,8.37
2022-11-17T03:47:18.794Z,8.37
2022-11-17T03:48:00.606Z,8.34
2022-11-17T03:48:37.998Z,8.38
2022-11-17T03:49:35.518Z,8.40
2022-11-17T03:50:15.943Z,8.37
2022-11-17T03:50:51.970Z,8.42
2022-11-17T03:51:27.240Z,8.31
2022-11-17T03:51:58.850Z,8.27
2022-11-17T03:52:31.193Z,8.20
2022-11-17T03:53:04.208Z,8.27
2022-11-17T03:53:36.926Z,8.27
2022-11-17T03:54:09.567Z,8.37
2022-11-17T03:54:41.641Z,8.33
2022-11-17T03:55:14.089Z,8.33
2022-11-17T03:55:54.249Z,8.27
2022-11-17T03:56:38.226Z,8.28
2022-11-17T03:57:29.929Z,8.24
2022-11-17T03:58:07.556Z,8.25
2022-11-17T03:58:46.614Z,8.25
2022-11-17T03:59:33.849Z,8.34
2022-11-17T04:00:11.015Z,8.28
2022-11-17T04:00:43.349Z,8.30
2022-11-17T04:01:15.570Z,8.24
2022-11-17T04:01:47.311Z,8.25
2022-11-17T04:02:20.659Z,8.21
2022-11-17T04:02:58.642Z,8.24
2022-11-17T04:03:32.634Z,8.24
2022-11-17T04:04:04.561Z,8.25
2022-11-17T04:04:54.877Z,8.23
2022-11-17T04:05:27.138Z,8.25
2022-11-17T04:05:58.682Z,8.20
2022-11-17T04:06:30.243Z,8.20
2022-11-17T04:07:01.839Z,8.24
2022-11-17T04:07:42.562Z,8.21
2022-11-17T04:08:14.227Z,8.16
2022-11-17T04:08:45.811Z,8.16
2022-11-17T04:09:22.880Z,8.18
2022-11-17T04:09:55.812Z,8.10
2022-11-17T04:10:27.438Z,8.13
2022-11-17T04:11:17.778Z,8.16
2022-11-17T04:12:07.962Z,8.18
2022-11-17T04:12:57.986Z,8.17
2022-11-17T04:13:48.140Z,8.13
2022-11-17T04:14:38.193Z,8.21
2022-11-17T04:15:29.450Z,8.16
2022-11-17T04:16:01.647Z,8.18
2022-11-17T04:16:33.193Z,8.17
2022-11-17T04:17:04.751Z,8.14
2022-11-17T04:17:36.271Z,8.16
2022-11-17T04:18:07.851Z,8.14
2022-11-17T04:18:39.376Z,8.14
2022-11-17T04:19:11.050Z,8.14
2022-11-17T04:19:42.585Z,8.16
2022-11-17T04:20:14.442Z,8.06
2022-11-17T04:20:49.234Z,7.93
2022-11-17T04:21:20.806Z,8.03
2022-11-17T04:21:52.330Z,7.96
2022-11-17T04:22:23.880Z,8.00
2022-11-17T04:23:07.459Z,8.01
2022-11-17T04:23:39.053Z,8.04
2022-11-17T04:24:10.654Z,8.08
2022-11-17T04:24:42.180Z,8.08
2022-11-17T04:25:33.727Z,8.06
2022-11-17T04:26:23.471Z,8.08
2022-11-17T04:27:14.014Z,8.18
2022-11-17T04:28:03.961Z,8.20
2022-11-17T04:28:38.872Z,8.21
2022-11-17T04:29:10.408Z,8.24
2022-11-17T04:29:41.933Z,8.20
2022-11-17T04:30:13.775Z,8.23
2022-11-17T04:30:45.295Z,8.18
2022-11-17T04:31:25.934Z,8.21
2022-11-17T04:31:57.495Z,8.20
2022-11-17T04:32:29.025Z,8.21
2022-11-17T04:33:00.536Z,8.21
2022-11-17T04:33:32.948Z,8.24
2022-11-17T04:34:05.745Z,8.27
2022-11-17T04:34:40.837Z,8.20
2022-11-17T04:35:12.381Z,8.24
2022-11-17T04:35:50.297Z,8.25
2022-11-17T04:36:24.508Z,8.28
2022-11-17T04:36:56.093Z,8.31
2022-11-17T04:37:27.621Z,8.31
2022-11-17T04:37:59.133Z,8.34
2022-11-17T04:38:30.709Z,8.31
2022-11-17T04:39:03.087Z,8.24
2022-11-17T04:39:37.654Z,8.25
2022-11-17T04:40:09.897Z,8.27
2022-11-17T04:41:01.368Z,8.18
2022-11-17T04:41:53.771Z,8.13
2022-11-17T04:42:25.365Z,8.24
2022-11-17T04:42:56.874Z,8.25
2022-11-17T04:43:28.892Z,8.21
2022-11-17T04:44:01.498Z,8.16
2022-11-17T04:44:33.128Z,8.17
2022-11-17T04:45:05.074Z,8.11
2022-11-17T04:45:36.582Z,8.10
2022-11-17T04:46:08.101Z,8.23
2022-11-17T04:46:41.094Z,8.17
2022-11-17T04:47:12.604Z,8.17
2022-11-17T04:47:44.133Z,8.11
2022-11-17T04:48:15.641Z,8.13
2022-11-17T04:48:47.769Z,8.14
2022-11-17T04:49:20.632Z,8.10
2022-11-17T04:49:52.152Z,8.03
2022-11-17T04:50:23.706Z,8.07
2022-11-17T04:50:56.845Z,8.14
2022-11-17T04:51:29.312Z,8.03
2022-11-17T04:52:01.335Z,8.06
2022-11-17T04:52:32.897Z,8.13
2022-11-17T04:53:04.434Z,8.14
2022-11-17T04:53:36.293Z,8.10
2022-11-17T04:54:09.837Z,8.16
2022-11-17T04:54:41.374Z,8.08
2022-11-17T04:55:13.065Z,8.13
2022-11-17T04:55:44.601Z,8.11
2022-11-17T04:56:16.622Z,8.14
2022-11-17T04:56:48.353Z,8.10
2022-11-17T04:57:19.900Z,8.03
2022-11-17T04:57:51.418Z,8.03
2022-11-17T04:58:22.933Z,7.94
2022-11-17T04:58:54.731Z,7.98
2022-11-17T04:59:26.374Z,8.03
2022-11-17T04:59:57.887Z,8.03
2022-11-17T05:00:29.454Z,8.03
2022-11-17T05:01:12.400Z,8.08
2022-11-17T05:01:44.381Z,7.97
2022-11-17T05:02:15.986Z,8.07
2022-11-17T05:02:47.577Z,8.10
2022-11-17T05:03:19.107Z,8.03
2022-11-17T05:04:01.696Z,8.04
2022-11-17T05:04:51.826Z,7.98
2022-11-17T05:05:23.363Z,7.91
2022-11-17T05:05:54.905Z,8.06
2022-11-17T05:06:33.614Z,8.07
2022-11-17T05:07:06.146Z,8.03
2022-11-17T05:07:37.806Z,8.04
2022-11-17T05:08:09.373Z,8.06
2022-11-17T05:08:41.450Z,8.03
2022-11-17T05:09:16.871Z,8.10
2022-11-17T05:09:48.399Z,8.13
2022-11-17T05:10:39.901Z,8.14
2022-11-17T05:11:32.426Z,8.13
2022-11-17T05:12:23.179Z,8.10
2022-11-17T05:13:12.975Z,8.06
2022-11-17T05:13:44.489Z,8.03
2022-11-17T05:14:18.768Z,8.04
2022-11-17T05:14:50.575Z,8.06
2022-11-17T05:15:42.133Z,8.07
2022-11-17T05:16:32.413Z,8.14
2022-11-17T05:17:11.359Z,8.18
2022-11-17T05:17:43.370Z,8.17
2022-11-17T05:18:14.882Z,8.10
2022-11-17T05:18:46.403Z,8.14
2022-11-17T05:19:22.062Z,8.16
2022-11-17T05:19:53.578Z,8.18
2022-11-17T05:20:25.167Z,8.20
2022-11-17T05:21:05.047Z,8.13
2022-11-17T05:21:36.677Z,8.03
2022-11-17T05:22:28.542Z,8.13
2022-11-17T05:23:18.542Z,8.07
2022-11-17T05:23:55.619Z,8.04
2022-11-17T05:24:27.528Z,8.06
2022-11-17T05:24:59.468Z,8.10
2022-11-17T05:25:30.998Z,8.16
2022-11-17T05:26:02.541Z,8.10
2022-11-17T05:26:36.720Z,8.13
2022-11-17T05:27:08.234Z,8.16
2022-11-17T05:27:39.747Z,8.13
2022-11-17T05:28:11.265Z,8.10
2022-11-17T05:28:43.034Z,8.13
2022-11-17T05:29:17.942Z,8.16
2022-11-17T05:29:49.676Z,8.13
2022-11-17T05:30:21.201Z,8.16
2022-11-17T05:30:52.726Z,8.10
2022-11-17T05:31:25.499Z,8.06
2022-11-17T05:31:57.046Z,8.00
2022-11-17T05:32:28.581Z,8.03
2022-11-17T05:33:00.098Z,8.07
2022-11-17T05:33:37.427Z,8.07
2022-11-17T05:34:12.408Z,8.03
2022-11-17T05:34:43.950Z,8.03
2022-11-17T05:35:15.474Z,8.08
2022-11-17T05:35:46.988Z,8.04
2022-11-17T05:36:19.670Z,8.10
2022-11-17T05:36:51.199Z,8.00
2022-11-17T05:37:22.821Z,8.06
2022-11-17T05:37:54.336Z,8.00
2022-11-17T05:38:25.883Z,8.03
2022-11-17T05:38:57.636Z,7.96
2022-11-17T05:39:29.150Z,7.93
2022-11-17T05:40:00.666Z,7.89
2022-11-17T05:40:32.177Z,7.83
2022-11-17T05:41:04.076Z,7.86
2022-11-17T05:41:37.241Z,7.90
2022-11-17T05:42:08.836Z,7.87
2022-11-17T05:42:40.399Z,7.79
2022-11-17T05:43:11.948Z,7.58
2022-11-17T05:43:44.089Z,7.61
2022-11-17T05:44:15.623Z,7.63
2022-11-17T05:44:48.575Z,7.65
2022-11-17T05:45:20.208Z,7.66
2022-11-17T05:45:51.850Z,7.75
2022-11-17T05:46:23.795Z,7.72
2022-11-17T05:46:55.389Z,7.73
2022-11-17T05:47:26.900Z,7.61
2022-11-17T05:47:58.445Z,7.61
2022-11-17T05:48:30.189Z,7.59
2022-11-17T05:49:01.792Z,7.61
2022-11-17T05:49:33.351Z,7.61
2022-11-17T05:50:05.187Z,7.61
2022-11-17T05:50:36.760Z,7.58
2022-11-17T05:51:08.329Z,7.56
2022-11-17T05:51:39.889Z,7.56
2022-11-17T05:52:11.421Z,7.55
2022-11-17T05:52:42.929Z,7.52
2022-11-17T05:53:14.516Z,7.49
2022-11-17T05:53:46.462Z,7.54
2022-11-17T05:54:18.015Z,7.52
2022-11-17T05:54:49.569Z,7.51
2022-11-17T05:55:21.149Z,7.58
2022-11-17T05:56:07.126Z,7.62
2022-11-17T05:56:52.541Z,7.65
2022-11-17T05:57:30.500Z,7.62
2022-11-17T05:58:10.885Z,7.67
2022-11-17T05:58:46.057Z,7.70
2022-11-17T05:59:32.329Z,7.66
2022-11-17T06:00:04.755Z,7.66
2022-11-17T06:00:39.653Z,7.63
2022-11-17T06:01:14.070Z,7.62
2022-11-17T06:02:23.785Z,7.63
2022-11-17T06:03:08.197Z,7.62
2022-11-17T06:03:47.420Z,7.67
2022-11-17T06:04:19.622Z,7.59
2022-11-17T06:04:51.853Z,7.56
2022-11-17T06:05:24.041Z,7.55
2022-11-17T06:05:57.489Z,7.59
2022-11-17T06:06:30.152Z,7.54
2022-11-17T06:07:02.594Z,7.55
2022-11-17T06:07:36.181Z,7.59
2022-11-17T06:08:07.781Z,7.55
2022-11-17T06:08:39.313Z,7.59
2022-11-17T06:09:11.474Z,7.61
2022-11-17T06:09:43.017Z,7.66
2022-11-17T06:10:14.614Z,7.70
2022-11-17T06:10:46.460Z,7.67
2022-11-17T06:11:19.355Z,7.65
2022-11-17T06:11:50.867Z,7.75
2022-11-17T06:12:22.405Z,7.72
2022-11-17T06:12:53.930Z,7.73
2022-11-17T06:13:28.965Z,7.70
2022-11-17T06:14:00.565Z,7.69
2022-11-17T06:14:32.269Z,7.59
2022-11-17T06:15:04.134Z,7.65
2022-11-17T06:15:35.841Z,7.58
2022-11-17T06:16:10.284Z,7.56
2022-11-17T06:16:46.336Z,7.56
2022-11-17T06:17:22.408Z,7.58
2022-11-17T06:18:00.374Z,7.56
2022-11-17T06:18:44.021Z,7.51
2022-11-17T06:19:20.609Z,7.51
2022-11-17T06:20:01.216Z,7.54
2022-11-17T06:20:37.613Z,7.36
2022-11-17T06:21:10.714Z,7.41
2022-11-17T06:22:09.964Z,7.46
2022-11-17T06:22:34.584Z,7.39
2022-11-17T06:23:08.058Z,7.45
2022-11-17T06:23:39.629Z,7.49
2022-11-17T06:24:11.261Z,7.54
2022-11-17T06:24:45.200Z,7.54
2022-11-17T06:25:19.208Z,7.52
2022-11-17T06:25:50.846Z,7.51
2022-11-17T06:26:22.574Z,7.51
2022-11-17T06:26:54.176Z,7.52
2022-11-17T06:27:26.401Z,7.45
2022-11-17T06:28:01.253Z,7.35
2022-11-17T06:28:35.159Z,7.36
2022-11-17T06:29:08.487Z,7.34
2022-11-17T06:29:44.278Z,7.41
2022-11-17T06:30:16.878Z,7.44
2022-11-17T06:30:49.500Z,7.46
2022-11-17T06:31:21.313Z,7.41
2022-11-17T06:31:53.652Z,7.42
2022-11-17T06:32:25.360Z,7.51
2022-11-17T06:32:58.654Z,7.45
2022-11-17T06:33:31.751Z,7.46
2022-11-17T06:34:04.960Z,7.46
2022-11-17T06:34:37.551Z,7.51
2022-11-17T06:35:11.508Z,7.51
2022-11-17T06:35:44.766Z,7.61
2022-11-17T06:36:16.467Z,7.54
2022-11-17T06:36:48.007Z,7.52
2022-11-17T06:37:20.305Z,7.49
2022-11-17T06:37:51.823Z,7.52
2022-11-17T06:38:23.339Z,7.52
2022-11-17T06:38:54.898Z,7.54
2022-11-17T06:39:26.585Z,7.55
2022-11-17T06:39:58.143Z,7.59
2022-11-17T06:40:29.916Z,7.58
2022-11-17T06:41:07.378Z,7.67
2022-11-17T06:41:42.032Z,7.69
2022-11-17T06:42:13.567Z,7.66
2022-11-17T06:43:03.623Z,7.66
2022-11-17T06:43:35.458Z,7.65
2022-11-17T06:44:07.238Z,7.67
2022-11-17T06:44:39.272Z,7.67
2022-11-17T06:45:11.921Z,7.76
2022-11-17T06:45:46.491Z,7.85
2022-11-17T06:46:19.069Z,7.82
2022-11-17T06:46:50.627Z,7.83
2022-11-17T06:47:22.150Z,7.83
2022-11-17T06:47:54.191Z,7.89
2022-11-17T06:48:27.169Z,7.90
2022-11-17T06:48:58.686Z,7.91
2022-11-17T06:49:30.275Z,7.90
2022-11-17T06:50:02.103Z,7.98
2022-11-17T06:50:34.876Z,7.98
2022-11-17T06:51:06.824Z,7.96
2022-11-17T06:51:43.761Z,8.04
2022-11-17T06:52:17.112Z,7.97
2022-11-17T06:52:48.679Z,7.89
2022-11-17T06:53:22.988Z,7.94
2022-11-17T06:53:54.666Z,7.94
2022-11-17T06:54:26.300Z,7.96
2022-11-17T06:54:57.852Z,7.89
2022-11-17T06:55:29.630Z,7.89
2022-11-17T06:56:08.550Z,7.89
2022-11-17T06:56:40.660Z,7.90
2022-11-17T06:57:12.254Z,7.85
2022-11-17T06:57:46.602Z,7.97
2022-11-17T06:58:22.042Z,8.00
2022-11-17T06:58:54.337Z,7.97
2022-11-17T06:59:25.967Z,8.00
2022-11-17T06:59:57.530Z,8.03
2022-11-17T07:00:30.448Z,8.10
2022-11-17T07:01:10.014Z,8.00
2022-11-17T07:01:41.683Z,8.08
2022-11-17T07:02:13.312Z,8.18
2022-11-17T07:02:44.991Z,8.13
2022-11-17T07:03:16.586Z,8.13
2022-11-17T07:03:48.172Z,8.14
2022-11-17T07:04:19.797Z,8.03
2022-11-17T07:04:51.452Z,8.10
2022-11-17T07:05:23.022Z,8.10
2022-11-17T07:05:54.654Z,7.98
2022-11-17T07:06:26.304Z,8.07
2022-11-17T07:06:57.943Z,8.04
2022-11-17T07:07:29.612Z,8.13
2022-11-17T07:08:04.026Z,8.17
2022-11-17T07:08:36.184Z,8.17
2022-11-17T07:09:08.154Z,8.21
2022-11-17T07:09:39.825Z,8.23
2022-11-17T07:10:11.491Z,8.28
2022-11-17T07:10:48.979Z,8.33
2022-11-17T07:11:20.990Z,8.34
2022-11-17T07:11:52.627Z,8.37
2022-11-17T07:12:24.255Z,8.45
2022-11-17T07:12:56.157Z,8.42
2022-11-17T07:13:27.716Z,8.44
2022-11-17T07:13:59.301Z,8.40
2022-11-17T07:14:31.389Z,8.49
2022-11-17T07:15:03.133Z,8.49
2022-11-17T07:15:34.746Z,8.64
2022-11-17T07:16:20.118Z,8.64
2022-11-17T07:16:54.723Z,8.65
2022-11-17T07:17:26.339Z,8.66
2022-11-17T07:17:58.616Z,8.75
2022-11-17T07:18:30.234Z,8.79
2022-11-17T07:19:03.825Z,8.85
2022-11-17T07:19:35.547Z,8.93
2022-11-17T07:20:07.747Z,8.89
2022-11-17T07:20:39.350Z,8.92
2022-11-17T07:21:13.839Z,8.96
2022-11-17T07:21:45.419Z,8.95
2022-11-17T07:22:17.047Z,8.93
2022-11-17T07:22:49.879Z,8.95
2022-11-17T07:23:22.298Z,8.93
2022-11-17T07:23:54.040Z,9.00
2022-11-17T07:24:25.675Z,9.00
2022-11-17T07:24:57.281Z,9.00
2022-11-17T07:25:28.851Z,9.07
2022-11-17T07:26:01.352Z,9.06
2022-11-17T07:26:32.983Z,9.00
2022-11-17T07:27:06.497Z,8.97
2022-11-17T07:27:38.799Z,8.96
2022-11-17T07:28:10.466Z,8.95
2022-11-17T07:28:42.059Z,8.95
2022-11-17T07:29:13.724Z,9.00
2022-11-17T07:29:45.354Z,8.89
2022-11-17T07:30:17.052Z,8.86
2022-11-17T07:30:48.685Z,8.90
2022-11-17T07:31:20.655Z,8.90
2022-11-17T07:31:52.328Z,8.82
2022-11-17T07:32:24.248Z,8.87
2022-11-17T07:32:57.613Z,8.99
2022-11-17T07:33:29.405Z,9.07
2022-11-17T07:34:00.979Z,9.09
2022-11-17T07:34:32.596Z,9.09
2022-11-17T07:35:05.978Z,9.12
2022-11-17T07:35:37.585Z,9.19
2022-11-17T07:36:11.736Z,9.13
2022-11-17T07:36:43.340Z,9.17
2022-11-17T07:37:14.913Z,9.16
2022-11-17T07:37:46.590Z,9.06
2022-11-17T07:38:18.176Z,9.00
2022-11-17T07:38:49.781Z,9.02
2022-11-17T07:39:22.152Z,8.90
2022-11-17T07:39:53.857Z,8.80
2022-11-17T07:40:25.758Z,8.92
2022-11-17T07:41:00.893Z,8.90
2022-11-17T07:41:32.523Z,8.83
2022-11-17T07:42:04.233Z,8.85
2022-11-17T07:42:35.895Z,8.82
2022-11-17T07:43:07.563Z,8.89
2022-11-17T07:43:39.651Z,8.93
2022-11-17T07:44:11.849Z,8.92
2022-11-17T07:44:43.600Z,8.93
2022-11-17T07:45:15.301Z,8.85
2022-11-17T07:45:46.923Z,8.86
2022-11-17T07:46:18.705Z,8.87
2022-11-17T07:46:50.337Z,8.90
2022-11-17T07:47:21.952Z,8.85
2022-11-17T07:47:57.585Z,8.86
2022-11-17T07:48:29.147Z,8.85
2022-11-17T07:49:00.741Z,8.86
2022-11-17T07:49:32.295Z,8.85
2022-11-17T07:50:04.367Z,8.83
2022-11-17T07:50:39.751Z,8.79
2022-11-17T07:51:12.381Z,8.83
2022-11-17T07:51:43.975Z,8.83
2022-11-17T07:52:15.664Z,8.76
2022-11-17T07:52:55.287Z,8.83
2022-11-17T07:53:26.982Z,8.89
2022-11-17T07:53:58.781Z,8.93
2022-11-17T07:54:30.428Z,8.89